Afton, California
Current Conditions -  °F | °C
As of 5:41 PM on Friday 19 Dec 2014 (Local Time) from KOVE Reporting Station
Broken Clouds Broken Clouds  
Wind Chill: 52°   Ceiling: 3000
Heat Index: 52°   Visibility: 10mi
Dew Point: 50°   Wind: 8mph
Humidity: 93%   Direction: 120°ESE
Pressure: 30.16"   Gusts: NA
Location:  39.4608°N, 121.937°W
Report Text: KOVE 200141Z AUTO 12007KT 10SM FEW014 SCT023 BKN030 11/10 A3016 RMK AO2 RAE06 P0000 T01110100
Loading
Personal Weather Stations






























Interactive Weather Map New forecast layout! Learn more

10-Day Weather Forecast

Advertisements
Track Severe Weather on mobile